createdAt,value
2019-04-20T00:00:48.857Z,69.30
2019-04-20T00:03:13.842Z,68.40
2019-04-20T00:05:41.353Z,68.40
2019-04-20T00:08:17.875Z,68.60
2019-04-20T00:10:47.585Z,68.60
2019-04-20T00:13:20.777Z,70.00
2019-04-20T00:15:36.751Z,69.00
2019-04-20T00:18:06.641Z,69.60
2019-04-20T00:20:35.253Z,70.10
2019-04-20T00:23:03.788Z,69.40
2019-04-20T00:25:53.121Z,69.80
2019-04-20T00:28:31.350Z,70.00
2019-04-20T00:31:04.149Z,70.20
2019-04-20T00:33:27.021Z,70.50
2019-04-20T00:35:44.358Z,70.70
2019-04-20T00:38:11.715Z,70.60
2019-04-20T00:40:39.159Z,70.50
2019-04-20T00:43:06.569Z,70.70
2019-04-20T00:45:36.179Z,69.00
2019-04-20T00:48:06.779Z,68.40
2019-04-20T00:50:44.653Z,67.40
2019-04-20T00:53:11.354Z,67.20
2019-04-20T00:55:27.812Z,67.30
2019-04-20T00:58:03.739Z,67.90
2019-04-20T01:00:42.502Z,68.20
2019-04-20T01:03:11.053Z,68.90
2019-04-20T01:05:46.413Z,67.80
2019-04-20T01:08:12.951Z,68.00
2019-04-20T01:10:46.118Z,68.00
2019-04-20T01:13:13.999Z,68.70
2019-04-20T01:15:47.167Z,69.80
2019-04-20T01:18:07.510Z,69.60
2019-04-20T01:20:33.662Z,71.10
2019-04-20T01:23:04.813Z,70.70
2019-04-20T01:25:33.836Z,71.10
2019-04-20T01:28:17.931Z,71.20
2019-04-20T01:30:32.230Z,71.70
2019-04-20T01:33:06.159Z,72.00
2019-04-20T01:35:48.064Z,72.10
2019-04-20T01:38:16.821Z,72.40
2019-04-20T01:40:25.692Z,72.60
2019-04-20T01:42:53.644Z,72.30
2019-04-20T01:45:27.072Z,72.30
2019-04-20T01:47:52.371Z,72.40
2019-04-20T01:50:21.001Z,73.00
2019-04-20T01:52:54.009Z,74.00
2019-04-20T01:55:38.657Z,75.00
2019-04-20T01:58:23.939Z,74.90
2019-04-20T02:00:38.255Z,76.10
2019-04-20T02:03:24.080Z,76.90
2019-04-20T02:05:55.663Z,77.50
2019-04-20T02:08:20.775Z,77.80
2019-04-20T02:10:50.940Z,77.80
2019-04-20T02:13:13.032Z,80.60
2019-04-20T02:15:45.109Z,80.70
2019-04-20T02:18:21.269Z,81.30
2019-04-20T02:20:58.098Z,82.80
2019-04-20T02:23:16.425Z,83.10
2019-04-20T02:25:31.149Z,84.00
2019-04-20T02:28:17.566Z,85.50
2019-04-20T02:31:06.500Z,86.40
2019-04-20T02:36:10.733Z,87.50
2019-04-20T02:38:58.375Z,88.30
2019-04-20T02:41:13.662Z,90.10
2019-04-20T02:43:58.084Z,90.40
2019-04-20T02:46:14.824Z,90.40
2019-04-20T02:53:36.492Z,90.70
2019-04-20T02:56:00.143Z,89.90
2019-04-20T02:58:22.927Z,90.10
2019-04-20T03:00:38.256Z,90.20
2019-04-20T03:03:01.317Z,90.40
2019-04-20T03:05:28.301Z,91.30
2019-04-20T03:08:02.815Z,91.40
2019-04-20T03:10:44.846Z,91.60
2019-04-20T03:13:03.012Z,91.80
2019-04-20T03:15:33.811Z,92.10
2019-04-20T03:18:03.489Z,92.70
2019-04-20T03:20:36.784Z,93.10
2019-04-20T03:23:20.075Z,93.10
2019-04-20T03:25:50.643Z,92.60
2019-04-20T03:28:18.259Z,92.70
2019-04-20T03:31:22.798Z,93.30
2019-04-20T03:33:30.948Z,93.60
2019-04-20T03:36:06.176Z,94.60
2019-04-20T03:38:14.220Z,95.10
2019-04-20T03:40:38.934Z,95.50
2019-04-20T03:42:55.111Z,95.60
2019-04-20T03:45:24.771Z,95.20
2019-04-20T03:48:05.016Z,95.70
2019-04-20T03:50:40.905Z,95.50
2019-04-20T03:53:10.098Z,95.10
2019-04-20T03:55:52.986Z,94.90
2019-04-20T03:58:28.763Z,94.70
2019-04-20T04:00:57.290Z,94.30
2019-04-20T04:03:34.963Z,94.50
2019-04-20T04:05:51.877Z,94.30
2019-04-20T04:08:19.421Z,94.40
2019-04-20T04:10:55.101Z,94.20
2019-04-20T04:13:14.849Z,94.30
2019-04-20T04:15:50.287Z,94.70
2019-04-20T04:18:24.150Z,94.90
2019-04-20T04:20:51.232Z,95.20
2019-04-20T04:23:29.611Z,95.40
2019-04-20T04:25:59.401Z,95.50
2019-04-20T04:28:28.528Z,95.70
2019-04-20T04:31:11.041Z,95.90
2019-04-20T04:36:04.658Z,96.00
2019-04-20T04:38:39.541Z,96.20
2019-04-20T04:43:35.631Z,96.60
2019-04-20T04:45:43.024Z,97.10
2019-04-20T04:48:14.830Z,97.40
2019-04-20T04:50:47.463Z,97.20
2019-04-20T04:53:17.064Z,97.30
2019-04-20T04:55:45.722Z,97.60
2019-04-20T04:58:06.463Z,97.40
2019-04-20T05:00:34.323Z,97.70
2019-04-20T05:03:23.373Z,97.60
2019-04-20T05:05:54.583Z,97.40
2019-04-20T05:08:13.119Z,96.50
2019-04-20T05:10:30.869Z,97.90
2019-04-20T05:12:58.987Z,97.60
2019-04-20T05:15:37.301Z,97.60
2019-04-20T05:18:12.854Z,97.20
2019-04-20T05:20:46.878Z,95.80
2019-04-20T05:23:12.989Z,96.20
2019-04-20T05:26:03.498Z,96.80
2019-04-20T05:28:20.451Z,96.70
2019-04-20T05:30:48.686Z,96.60
2019-04-20T05:33:24.462Z,96.40
2019-04-20T05:36:01.425Z,95.50
2019-04-20T05:38:37.065Z,94.50
2019-04-20T05:41:01.694Z,93.60
2019-04-20T05:43:37.159Z,93.10
2019-04-20T05:46:15.867Z,92.90
2019-04-20T05:48:44.274Z,92.70
2019-04-20T05:51:05.521Z,92.40
2019-04-20T05:53:39.798Z,92.30
2019-04-20T05:56:03.822Z,92.10
2019-04-20T05:58:32.727Z,91.80
2019-04-20T06:01:08.529Z,92.60
2019-04-20T06:03:26.162Z,92.50
2019-04-20T06:06:03.539Z,92.00
2019-04-20T06:08:41.121Z,92.50
2019-04-20T06:11:06.272Z,92.00
2019-04-20T06:13:27.540Z,91.30
2019-04-20T06:16:03.489Z,91.50
2019-04-20T06:18:30.779Z,91.50
2019-04-20T06:21:15.809Z,91.40
2019-04-20T06:23:44.669Z,90.80
2019-04-20T06:26:37.011Z,91.10
2019-04-20T06:28:36.602Z,90.30
2019-04-20T06:31:10.765Z,88.20
2019-04-20T06:34:19.959Z,87.70
2019-04-20T06:36:38.945Z,86.70
2019-04-20T06:39:08.019Z,87.70
2019-04-20T06:41:53.895Z,88.40
2019-04-20T06:44:08.555Z,88.60
2019-04-20T06:46:34.678Z,88.80
2019-04-20T06:49:15.125Z,89.00
2019-04-20T06:51:34.793Z,88.40
2019-04-20T06:54:04.711Z,87.60
2019-04-20T06:56:41.707Z,87.70
2019-04-20T06:59:21.409Z,86.60
2019-04-20T07:01:48.701Z,87.20
2019-04-20T07:04:37.589Z,86.50
2019-04-20T07:06:50.872Z,86.30
2019-04-20T07:09:14.153Z,88.50
2019-04-20T07:11:39.027Z,85.70
2019-04-20T07:13:53.363Z,85.60
2019-04-20T07:16:55.741Z,83.90
2019-04-20T07:19:24.017Z,83.70
2019-04-20T07:22:12.314Z,83.50
2019-04-20T07:24:41.465Z,81.30
2019-04-20T07:27:00.759Z,80.10
2019-04-20T07:29:36.729Z,80.60
2019-04-20T07:31:53.633Z,80.00
2019-04-20T07:34:26.629Z,78.60
2019-04-20T07:37:22.018Z,77.80
2019-04-20T07:39:28.169Z,78.50
2019-04-20T07:42:00.644Z,77.20
2019-04-20T07:44:34.269Z,76.10
2019-04-20T07:47:03.961Z,74.60
2019-04-20T07:49:18.196Z,73.80
2019-04-20T07:51:34.990Z,73.50
2019-04-20T07:54:22.998Z,74.20
2019-04-20T07:56:47.803Z,74.30
2019-04-20T07:59:11.265Z,74.20
2019-04-20T08:02:05.921Z,73.80
2019-04-20T08:04:24.558Z,74.30
2019-04-20T08:06:43.410Z,76.00
2019-04-20T08:09:20.797Z,76.00
2019-04-20T08:12:09.506Z,75.30
2019-04-20T08:14:35.094Z,74.40
2019-04-20T08:17:09.547Z,73.00
2019-04-20T08:19:22.739Z,72.00
2019-04-20T08:21:52.958Z,72.50
2019-04-20T08:24:17.654Z,73.20
2019-04-20T08:26:36.000Z,72.50
2019-04-20T08:29:03.843Z,72.10
2019-04-20T08:32:04.553Z,72.00
2019-04-20T08:34:39.723Z,71.80
2019-04-20T08:37:01.663Z,72.20
2019-04-20T08:42:00.425Z,72.20
2019-04-20T08:44:45.742Z,72.40
2019-04-20T08:47:12.277Z,72.20
2019-04-20T08:49:29.714Z,69.60
2019-04-20T08:52:01.763Z,69.80
2019-04-20T08:54:23.313Z,69.40
2019-04-20T08:56:41.535Z,69.00
2019-04-20T08:59:03.951Z,69.00
2019-04-20T09:01:32.754Z,68.50
2019-04-20T09:04:06.699Z,69.70
2019-04-20T09:06:41.364Z,68.20
2019-04-20T09:09:29.248Z,64.70
2019-04-20T09:11:52.459Z,65.40
2019-04-20T09:14:00.145Z,63.80
2019-04-20T09:16:32.398Z,60.50
2019-04-20T09:18:59.982Z,60.30
2019-04-20T09:21:33.111Z,61.10
2019-04-20T09:24:18.362Z,60.10
2019-04-20T09:26:43.203Z,60.70
2019-04-20T09:29:05.397Z,61.00
2019-04-20T09:31:43.746Z,60.60
2019-04-20T09:34:20.354Z,61.30
2019-04-20T09:36:50.789Z,59.10
2019-04-20T09:39:20.978Z,58.80
2019-04-20T09:42:05.073Z,57.40
2019-04-20T09:44:20.090Z,58.00
2019-04-20T09:46:51.328Z,57.80
2019-04-20T09:49:32.647Z,57.40
2019-04-20T09:52:01.459Z,57.10
2019-04-20T09:54:34.386Z,56.40
2019-04-20T09:57:09.412Z,56.80
2019-04-20T09:59:33.689Z,55.90
2019-04-20T10:01:47.337Z,56.80
2019-04-20T10:04:11.066Z,55.40
2019-04-20T10:06:41.362Z,54.60
2019-04-20T10:09:09.762Z,54.10
2019-04-20T10:11:37.296Z,54.40
2019-04-20T10:14:04.054Z,53.60
2019-04-20T10:16:31.405Z,53.70
2019-04-20T10:18:58.748Z,52.90
2019-04-20T10:21:25.897Z,52.20
2019-04-20T10:23:54.395Z,51.70
2019-04-20T10:26:22.733Z,51.40
2019-04-20T10:28:49.772Z,49.20
2019-04-20T10:31:18.661Z,48.50
2019-04-20T10:33:45.919Z,48.90
2019-04-20T10:36:23.626Z,46.60
2019-04-20T10:38:50.683Z,46.50
2019-04-20T10:41:29.673Z,49.00
2019-04-20T10:43:48.941Z,47.80
2019-04-20T10:46:17.334Z,46.20
2019-04-20T10:48:48.007Z,44.90
2019-04-20T10:51:12.794Z,44.10
2019-04-20T10:53:40.378Z,44.20
2019-04-20T10:56:07.467Z,44.20
2019-04-20T10:58:33.829Z,44.00
2019-04-20T11:01:02.387Z,43.30
2019-04-20T11:03:29.472Z,42.80
2019-04-20T11:05:56.436Z,42.90
2019-04-20T11:08:26.552Z,44.10
2019-04-20T11:11:07.364Z,44.50
2019-04-20T11:13:25.578Z,44.50
2019-04-20T11:15:52.663Z,44.70
2019-04-20T11:18:22.069Z,43.10
2019-04-20T11:20:51.102Z,41.30
2019-04-20T11:23:18.205Z,40.30
2019-04-20T11:25:46.395Z,41.40
2019-04-20T11:28:12.511Z,41.30
2019-04-20T11:30:40.423Z,41.10
2019-04-20T11:33:06.543Z,40.60
2019-04-20T11:35:37.658Z,40.50
2019-04-20T11:38:00.941Z,40.20
2019-04-20T11:40:30.831Z,41.00
2019-04-20T11:42:59.579Z,39.30
2019-04-20T11:45:26.707Z,39.40
2019-04-20T11:47:57.824Z,39.40
2019-04-20T11:50:25.301Z,39.00
2019-04-20T11:52:53.398Z,37.60
2019-04-20T11:55:20.157Z,37.20
2019-04-20T11:57:47.192Z,38.20
2019-04-20T12:00:17.303Z,38.50
2019-04-20T12:02:54.292Z,36.70
2019-04-20T12:05:32.382Z,35.00
2019-04-20T12:08:04.958Z,33.50
2019-04-20T12:10:33.177Z,32.30
2019-04-20T12:13:01.795Z,31.70
2019-04-20T12:15:34.526Z,31.50
2019-04-20T12:17:59.843Z,31.20
2019-04-20T12:20:26.930Z,31.40
2019-04-20T12:23:16.156Z,30.80
2019-04-20T12:25:56.488Z,30.40
2019-04-20T12:28:37.817Z,30.80
2019-04-20T12:31:22.055Z,29.70
2019-04-20T12:34:00.424Z,30.00
2019-04-20T12:36:39.565Z,29.30
2019-04-20T12:39:19.661Z,29.30
2019-04-20T12:42:03.898Z,29.60
2019-04-20T12:44:41.706Z,28.90
2019-04-20T12:47:21.708Z,28.70
2019-04-20T12:50:01.573Z,28.70
2019-04-20T12:52:41.022Z,28.30
2019-04-20T13:00:54.485Z,28.40
2019-04-20T13:06:21.656Z,28.00
2019-04-20T13:09:05.765Z,28.40
2019-04-20T13:11:55.527Z,28.20
2019-04-20T13:17:16.647Z,28.70
2019-04-20T13:19:59.495Z,28.60
2019-04-20T13:22:41.213Z,28.30
2019-04-20T13:25:23.124Z,28.30
2019-04-20T13:28:03.073Z,28.00
2019-04-20T13:30:47.999Z,28.00
2019-04-20T13:33:14.230Z,27.90
2019-04-20T13:36:00.278Z,28.10
2019-04-20T13:39:08.215Z,27.60
2019-04-20T13:42:00.927Z,27.90
2019-04-20T13:44:32.664Z,27.70
2019-04-20T13:47:14.860Z,28.00
2019-04-20T13:52:42.668Z,28.20
2019-04-20T13:55:25.447Z,28.10
2019-04-20T14:00:52.476Z,27.20
2019-04-20T14:06:24.724Z,26.50
2019-04-20T14:09:07.522Z,26.20
2019-04-20T14:14:39.501Z,26.60
2019-04-20T14:20:12.123Z,26.10
2019-04-20T14:22:52.315Z,25.60
2019-04-20T14:25:33.295Z,25.40
2019-04-20T14:28:18.463Z,25.50
2019-04-20T14:31:01.627Z,25.60
2019-04-20T14:33:41.409Z,25.30
2019-04-20T14:36:21.570Z,25.60
2019-04-20T14:39:02.427Z,25.30
2019-04-20T14:41:44.509Z,25.30
2019-04-20T14:49:55.138Z,25.50
2019-04-20T14:52:37.331Z,25.20
2019-04-20T14:55:19.442Z,25.40
2019-04-20T15:01:06.680Z,25.30
2019-04-20T15:06:36.754Z,25.50
2019-04-20T15:12:04.552Z,26.10
2019-04-20T15:14:44.922Z,25.40
2019-04-20T15:20:17.250Z,25.60
2019-04-20T15:22:59.313Z,25.10
2019-04-20T15:25:42.829Z,25.10
2019-04-20T15:31:08.425Z,25.10
2019-04-20T15:33:50.826Z,24.80
2019-04-20T15:36:30.164Z,25.00
2019-04-20T15:41:53.578Z,25.20
2019-04-20T15:44:35.568Z,25.60
2019-04-20T15:47:15.356Z,25.50
2019-04-20T15:49:55.838Z,25.90
2019-04-20T15:52:40.433Z,25.90
2019-04-20T15:58:03.323Z,25.70
2019-04-20T16:06:09.402Z,26.00
2019-04-20T16:11:59.127Z,26.50
2019-04-20T16:14:39.506Z,26.60
2019-04-20T16:20:09.031Z,27.10
2019-04-20T16:25:53.863Z,27.50
2019-04-20T16:28:35.367Z,27.40
2019-04-20T16:31:18.323Z,27.10
2019-04-20T16:33:58.816Z,27.10
2019-04-20T16:36:40.823Z,27.20
2019-04-20T16:39:22.614Z,27.60
2019-04-20T16:41:48.823Z,27.80
2019-04-20T16:47:44.184Z,28.00
2019-04-20T16:50:24.738Z,28.10
2019-04-20T16:53:06.651Z,28.20
2019-04-20T16:55:46.492Z,28.30
2019-04-20T16:58:28.134Z,28.30
2019-04-20T17:01:09.700Z,28.50
2019-04-20T17:03:59.225Z,28.50
2019-04-20T17:06:32.008Z,28.00
2019-04-20T17:09:13.794Z,28.70
2019-04-20T17:11:54.017Z,28.10
2019-04-20T17:14:33.840Z,28.20
2019-04-20T17:17:15.673Z,28.60
2019-04-20T17:19:55.725Z,28.20
2019-04-20T17:22:35.203Z,28.40
2019-04-20T17:25:16.158Z,28.60
2019-04-20T17:27:59.261Z,28.40
2019-04-20T17:33:47.381Z,28.30
2019-04-20T17:36:21.793Z,28.40
2019-04-20T17:39:01.481Z,28.60
2019-04-20T17:41:59.294Z,28.60
2019-04-20T17:44:34.258Z,28.30
2019-04-20T17:47:21.628Z,28.30
2019-04-20T17:49:59.748Z,28.20
2019-04-20T17:52:42.688Z,28.10
2019-04-20T17:55:33.857Z,28.00
2019-04-20T17:58:14.711Z,28.30
2019-04-20T18:00:58.090Z,28.90
2019-04-20T18:04:11.529Z,29.50
2019-04-20T18:06:34.939Z,30.00
2019-04-20T18:09:11.737Z,30.60
2019-04-20T18:14:43.308Z,31.60
2019-04-20T18:17:42.669Z,32.20
2019-04-20T18:23:06.615Z,32.90
2019-04-20T18:26:19.344Z,32.90
2019-04-20T18:28:52.817Z,32.70
2019-04-20T18:31:33.544Z,33.40
2019-04-20T18:34:20.244Z,33.80
2019-04-20T18:39:50.555Z,34.80
2019-04-20T18:42:30.421Z,35.20
2019-04-20T18:45:24.091Z,35.60
2019-04-20T18:48:02.688Z,35.80
2019-04-20T18:50:32.617Z,36.50
2019-04-20T18:55:59.057Z,36.80
2019-04-20T18:58:37.495Z,37.00
2019-04-20T19:01:19.281Z,37.10
2019-04-20T19:03:59.707Z,37.10
2019-04-20T19:06:39.252Z,37.60
2019-04-20T19:09:24.992Z,38.60
2019-04-20T19:12:05.767Z,38.30
2019-04-20T19:15:28.270Z,38.50
2019-04-20T19:18:01.134Z,39.00
2019-04-20T19:20:37.016Z,39.50
2019-04-20T19:23:17.070Z,39.80
2019-04-20T19:26:02.501Z,40.10
2019-04-20T19:28:44.490Z,40.40
2019-04-20T19:31:35.199Z,40.80
2019-04-20T19:34:18.833Z,40.50
2019-04-20T19:36:49.893Z,40.80
2019-04-20T19:39:39.936Z,41.20
2019-04-20T19:42:19.716Z,41.00
2019-04-20T19:47:47.646Z,40.90
2019-04-20T19:50:36.761Z,40.70
2019-04-20T19:55:53.110Z,41.40
2019-04-20T19:58:32.846Z,41.20
2019-04-20T20:01:04.862Z,41.60
2019-04-20T20:06:40.063Z,41.60
2019-04-20T20:12:03.680Z,42.30
2019-04-20T20:14:44.313Z,42.10
2019-04-20T20:17:43.757Z,42.10
2019-04-20T20:20:25.152Z,42.50
2019-04-20T20:22:49.659Z,42.00
2019-04-20T20:25:32.983Z,42.10
2019-04-20T20:28:20.253Z,42.30
2019-04-20T20:30:56.873Z,42.80
2019-04-20T20:36:19.274Z,42.40
2019-04-20T20:41:53.083Z,42.50
2019-04-20T20:47:36.840Z,43.30
2019-04-20T20:50:28.452Z,43.20
2019-04-20T20:52:50.871Z,42.90
2019-04-20T20:55:28.832Z,45.00
2019-04-20T21:00:48.472Z,43.50
2019-04-20T21:03:28.001Z,43.90
2019-04-20T21:06:03.436Z,43.80
2019-04-20T21:08:48.767Z,44.00
2019-04-20T21:11:29.648Z,44.20
2019-04-20T21:14:07.365Z,44.40
2019-04-20T21:20:05.040Z,44.50
2019-04-20T21:22:51.675Z,44.80
2019-04-20T21:25:41.728Z,44.80
2019-04-20T21:31:11.602Z,45.30
2019-04-20T21:36:31.355Z,45.60
2019-04-20T21:39:22.051Z,45.70
2019-04-20T21:42:04.567Z,45.90
2019-04-20T21:44:44.127Z,46.20
2019-04-20T21:47:31.444Z,46.40
2019-04-20T21:50:25.353Z,46.30
2019-04-20T21:52:53.490Z,46.40
2019-04-20T21:55:30.208Z,46.50
2019-04-20T21:58:25.221Z,46.90
2019-04-20T22:01:10.831Z,46.90
2019-04-20T22:03:38.410Z,47.00
2019-04-20T22:06:18.386Z,47.20
2019-04-20T22:09:01.034Z,47.30
2019-04-20T22:11:41.986Z,47.20
2019-04-20T22:14:24.863Z,47.20
2019-04-20T22:17:05.491Z,47.40
2019-04-20T22:20:01.010Z,47.50
2019-04-20T22:22:43.163Z,47.80
2019-04-20T22:25:31.728Z,48.00
2019-04-20T22:27:51.405Z,48.20
2019-04-20T22:30:32.175Z,48.40
2019-04-20T22:33:23.604Z,48.60
2019-04-20T22:36:02.173Z,48.70
2019-04-20T22:39:03.002Z,48.80
2019-04-20T22:41:46.681Z,48.60
2019-04-20T22:44:27.143Z,48.70
2019-04-20T22:47:16.095Z,48.90
2019-04-20T22:50:07.822Z,48.70
2019-04-20T22:52:42.936Z,48.70
2019-04-20T22:55:36.645Z,48.80
2019-04-20T22:58:01.339Z,49.10
2019-04-20T23:00:42.146Z,49.40
2019-04-20T23:03:14.707Z,49.30
2019-04-20T23:05:54.522Z,49.40
2019-04-20T23:08:35.015Z,49.50
2019-04-20T23:11:25.207Z,49.40
2019-04-20T23:13:58.163Z,49.40
2019-04-20T23:19:32.067Z,49.70
2019-04-20T23:22:05.356Z,49.80
2019-04-20T23:27:31.188Z,49.90
2019-04-20T23:30:19.111Z,50.00
2019-04-20T23:32:49.784Z,50.00
2019-04-20T23:35:20.122Z,50.10
2019-04-20T23:38:10.994Z,50.30
2019-04-20T23:40:47.828Z,50.70
2019-04-20T23:43:33.341Z,50.20
2019-04-20T23:46:21.311Z,50.50
2019-04-20T23:49:25.050Z,50.50
2019-04-20T23:52:29.643Z,50.80
2019-04-20T23:54:51.368Z,51.10
2019-04-20T23:57:24.384Z,51.10
